St Pierre — FIDX — position and weather

sailwx.info

Track history (hours):
 
Tides and Currents Weather Stations Pressure Air Temp Water Temp Dewpoint Dewpoint Depression Visibility Wind Speed Wind Dir Waves Ship Positions

St Pierre

Last reported at 2016-Dec-09 14:33 UTC. Time now 2016-Dec-09 19:48 UTC.
Position N 47°05' W 002°22'.

Length 84 m; draft 4.5 m.

Type: Cargo ship. MMSI: 228024800.

Date/timePositionNaut miles runAvg speedWind from/ knotsBaromVisibWave heightAir tempDewpointWater temp
2016-Dec-09 14:33N 47°05' W 002°22'1010.5
2016-Dec-09 13:33N 47°14' W 002°15'1111.2
2016-Dec-09 12:33N 47°17' W 001°59'1110.6
2016-Dec-09 11:33N 47°12' W 001°45'5 4.9
2016-Dec-09 10:33N 47°12' W 001°38'0 0.0
2016-Dec-09 09:33N 47°12' W 001°38'0 0.0
2016-Dec-09 08:33N 47°12' W 001°38'0 0.0
2016-Dec-09 07:33N 47°12' W 001°38'0 0.0
2016-Dec-09 06:33N 47°12' W 001°38'0 0.0
2016-Dec-09 05:33N 47°12' W 001°38'0 0.0
2016-Dec-09 04:33N 47°12' W 001°38'0 0.0
2016-Dec-09 03:33N 47°12' W 001°38'0 0.0
2016-Dec-09 02:33N 47°12' W 001°38'0 0.0
2016-Dec-09 01:33N 47°12' W 001°38'0 0.0
2016-Dec-09 00:33N 47°12' W 001°38'0 0.0
2016-Dec-08 23:33N 47°12' W 001°38'0 0.0
2016-Dec-08 22:33N 47°12' W 001°38'6 5.7
2016-Dec-08 21:33N 47°12' W 001°46'1110.9
2016-Dec-08 20:33N 47°17' W 002°00'1211.6
2016-Dec-08 19:33N 47°13' W 002°16'9 8.7
2016-Dec-08 18:33N 47°06' W 002°22'0 0.3
2016-Dec-08 17:33N 47°06' W 002°22'1 0.6
2016-Dec-08 16:33N 47°05' W 002°23'2 2.0
2016-Dec-08 15:34N 47°07' W 002°21'1111.3
2016-Dec-08 14:34N 47°16' W 002°11'1212.4
2016-Dec-08 13:33N 47°16' W 001°53'1111.3
2016-Dec-08 12:34N 47°12' W 001°38'0 0.0
2016-Dec-08 11:34N 47°12' W 001°38'3 3.4
2016-Dec-08 10:34N 47°12' W 001°43'1010.1
2016-Dec-08 09:33N 47°17' W 001°56'1010.0
2016-Dec-08 08:33N 47°17' W 002°11'1212.1
2016-Dec-08 07:34N 47°06' W 002°21'0 0.1
2016-Dec-08 06:33N 47°06' W 002°21'0 0.0
2016-Dec-08 05:34N 47°06' W 002°21'0 0.0
2016-Dec-08 04:33N 47°06' W 002°21'0 0.1
2016-Dec-08 03:33N 47°06' W 002°21'0 0.0
2016-Dec-08 02:34N 47°06' W 002°21'0 0.0
2016-Dec-08 01:33N 47°06' W 002°21'0 0.0
2016-Dec-08 00:33N 47°06' W 002°21'0 0.0
2016-Dec-07 23:34N 47°06' W 002°21'0 0.0
2016-Dec-07 22:33N 47°06' W 002°21'0 0.0
2016-Dec-07 21:34N 47°06' W 002°21'0 0.0
2016-Dec-07 20:34N 47°06' W 002°21'0 0.1
2016-Dec-07 19:33N 47°06' W 002°21'2 1.6
2016-Dec-07 18:33N 47°06' W 002°22'0 0.5
2016-Dec-07 17:34N 47°06' W 002°22'0 0.3
2016-Dec-07 16:33N 47°06' W 002°22'0 0.5
2016-Dec-07 15:34N 47°06' W 002°22'0 0.5
2016-Dec-07 14:33N 47°06' W 002°22'0 0.2
2016-Dec-07 13:34N 47°06' W 002°22'10 9.9
2016-Dec-07 12:34N 47°14' W 002°15'7 6.6
2016-Dec-07 11:34N 47°18' W 002°07'0 0.0
2016-Dec-07 10:33N 47°18' W 002°07'2 2.1
2016-Dec-07 09:34N 47°17' W 002°10'1110.8
2016-Dec-07 08:33N 47°09' W 002°20'4 3.9
2016-Dec-07 07:33N 47°05' W 002°22'0 0.3
2016-Dec-07 06:34N 47°05' W 002°21'0 0.0
2016-Dec-07 05:34N 47°05' W 002°21'0 0.0
2016-Dec-07 04:33N 47°05' W 002°21'0 0.0
2016-Dec-07 03:34N 47°05' W 002°21'6 6.4
2016-Dec-07 02:34N 47°11' W 002°18'1211.8
2016-Dec-07 01:33N 47°18' W 002°04'1312.7
2016-Dec-07 00:33N 47°13' W 001°47'6 6.5
2016-Dec-06 23:33N 47°12' W 001°38'0 0.0
2016-Dec-06 22:33N 47°12' W 001°38'0 0.3
2016-Dec-06 21:33N 47°12' W 001°39'9 8.6
2016-Dec-06 20:33N 47°14' W 001°50'18 9.1
2016-Dec-06 18:33N 47°12' W 002°17'8 7.7
2016-Dec-06 17:33N 47°05' W 002°21'0 0.0
2016-Dec-06 16:33N 47°05' W 002°21'0 0.2
2016-Dec-06 15:33N 47°05' W 002°22'0 0.1
2016-Dec-06 14:33N 47°05' W 002°22'0 0.2
2016-Dec-06 13:33N 47°05' W 002°21'7 6.9
2016-Dec-06 12:33N 47°11' W 002°18'1211.6
2016-Dec-06 11:33N 47°18' W 002°04'1212.1
2016-Dec-06 10:33N 47°13' W 001°48'8 7.7
2016-Dec-06 09:33N 47°12' W 001°37'0 0.0
2016-Dec-06 08:33N 47°12' W 001°37'0 0.0
2016-Dec-06 07:33N 47°12' W 001°37'0 0.0
2016-Dec-06 06:33N 47°12' W 001°37'0 0.0
2016-Dec-06 05:33N 47°12' W 001°37'0 0.0
2016-Dec-06 04:33N 47°12' W 001°37'0 0.0
2016-Dec-06 03:33N 47°12' W 001°37'0 0.0
2016-Dec-06 02:33N 47°12' W 001°37'0 0.0
2016-Dec-06 01:33N 47°12' W 001°37'0 0.0
2016-Dec-06 00:33N 47°12' W 001°37'0 0.0
2016-Dec-05 23:33N 47°12' W 001°37'0 0.0
2016-Dec-05 22:33N 47°12' W 001°37'0 0.0
2016-Dec-05 21:33N 47°12' W 001°37'0 0.0
2016-Dec-05 20:33N 47°12' W 001°37'0 0.0
2016-Dec-05 19:33N 47°12' W 001°37'0 0.0
2016-Dec-05 18:33N 47°12' W 001°37'0 0.0
2016-Dec-05 17:33N 47°12' W 001°37'0 0.0
2016-Dec-05 16:33N 47°12' W 001°37'0 0.0
2016-Dec-05 15:33N 47°12' W 001°37'0 0.0
2016-Dec-05 14:33N 47°12' W 001°37'0 0.0
2016-Dec-05 13:33N 47°12' W 001°37'0 0.0
2016-Dec-05 12:33N 47°12' W 001°37'0 0.0
2016-Dec-05 11:33N 47°12' W 001°37'0 0.0
2016-Dec-05 10:33N 47°12' W 001°37'0 0.0
2016-Dec-05 09:33N 47°12' W 001°37'0 0.0
2016-Dec-05 08:33N 47°12' W 001°37'0 0.0
2016-Dec-05 07:33N 47°12' W 001°37'0 0.0
2016-Dec-05 06:33N 47°12' W 001°37'0 0.0
2016-Dec-05 05:33N 47°12' W 001°37'0 0.0
2016-Dec-05 04:33N 47°12' W 001°37'0 0.0
2016-Dec-05 03:33N 47°12' W 001°37'0 0.0
2016-Dec-05 02:33N 47°12' W 001°37'0 0.0
2016-Dec-05 01:33N 47°12' W 001°37'0 0.0
2016-Dec-05 00:33N 47°12' W 001°37'0 0.0
2016-Dec-04 23:33N 47°12' W 001°37'0 0.0
2016-Dec-04 22:33N 47°12' W 001°37'0 0.0
2016-Dec-04 21:33N 47°12' W 001°37'0 0.0
2016-Dec-04 20:33N 47°12' W 001°37'0 0.0
2016-Dec-04 19:32N 47°12' W 001°37'0 0.0
2016-Dec-04 18:33N 47°12' W 001°37'0 0.0
2016-Dec-04 17:33N 47°12' W 001°37'0 0.0
2016-Dec-04 16:33N 47°12' W 001°37'0 0.0
2016-Dec-04 15:33N 47°12' W 001°37'0 0.0
2016-Dec-04 14:33N 47°12' W 001°37'0 0.0
2016-Dec-04 13:33N 47°12' W 001°37'0 0.0
2016-Dec-04 12:33N 47°12' W 001°37'0 0.0
2016-Dec-04 11:33N 47°12' W 001°37'0 0.0
2016-Dec-04 10:33N 47°12' W 001°37'0 0.0
2016-Dec-04 09:33N 47°12' W 001°37'0 0.0
2016-Dec-04 08:33N 47°12' W 001°37'0 0.0
2016-Dec-04 07:33N 47°12' W 001°37'0 0.0
2016-Dec-04 06:33N 47°12' W 001°37'0 0.0
2016-Dec-04 05:33N 47°12' W 001°37'0 0.0
2016-Dec-04 04:33N 47°12' W 001°37'0 0.0
2016-Dec-04 03:33N 47°12' W 001°37'0 0.0
2016-Dec-04 02:33N 47°12' W 001°37'0 0.0
2016-Dec-04 01:33N 47°12' W 001°37'0 0.0
2016-Dec-04 00:33N 47°12' W 001°37'0 0.0
2016-Dec-03 23:33N 47°12' W 001°37'0 0.0
2016-Dec-03 22:33N 47°12' W 001°37'0 0.0
2016-Dec-03 21:33N 47°12' W 001°37'0 0.0
2016-Dec-03 20:33N 47°12' W 001°37'0 0.0
2016-Dec-03 19:33N 47°12' W 001°37'1 0.8
2016-Dec-03 18:33N 47°12' W 001°38'0 0.0
2016-Dec-03 17:33N 47°12' W 001°38'7 7.4
2016-Dec-03 16:33N 47°13' W 001°49'1211.7
2016-Dec-03 15:33N 47°18' W 002°04'1211.5
2016-Dec-03 14:33N 47°11' W 002°18'7 6.9
2016-Dec-03 13:33N 47°05' W 002°21'0 0.2
2016-Dec-03 12:34N 47°05' W 002°21'0 0.1
2016-Dec-03 11:33N 47°05' W 002°21'0 0.3
2016-Dec-03 10:33N 47°05' W 002°21'1211.9
2016-Dec-03 09:34N 47°15' W 002°13'1211.7
2016-Dec-03 08:34N 47°17' W 001°56'1211.7
2016-Dec-03 07:34N 47°12' W 001°40'2 1.7
2016-Dec-03 06:34N 47°12' W 001°38'0 0.0
2016-Dec-03 05:33N 47°12' W 001°38'5 4.5
2016-Dec-03 04:33N 47°12' W 001°44'1010.0
2016-Dec-03 03:33N 47°17' W 001°57'1110.8
2016-Dec-03 02:30N 47°15' W 002°14'1011.1
2016-Dec-03 01:34N 47°06' W 002°22'0 0.2
2016-Dec-03 00:33N 47°06' W 002°22'6 5.5
2016-Dec-02 23:33N 47°08' W 002°30'1212.0
2016-Dec-02 22:33N 47°14' W 002°45'1212.3
2016-Dec-02 21:33N 47°20' W 003°00'1111.5
2016-Dec-02 20:34N 47°28' W 003°13'1312.8
2016-Dec-02 19:34N 47°40' W 003°21'6 5.5
2016-Dec-02 18:33N 47°45' W 003°19'0 0.0
2016-Dec-02 17:33N 47°45' W 003°19'0 0.0
2016-Dec-02 16:33N 47°45' W 003°19'1 0.8
2016-Dec-02 15:33N 47°44' W 003°20'5 5.4
2016-Dec-02 14:33N 47°40' W 003°24'0 0.1
2016-Dec-02 13:34N 47°40' W 003°24'0 0.0
2016-Dec-02 12:33N 47°40' W 003°24'0 0.0
2016-Dec-02 11:34N 47°40' W 003°24'0 0.0
2016-Dec-02 10:33N 47°40' W 003°24'0 0.0
2016-Dec-02 09:33N 47°40' W 003°24'0 0.0
2016-Dec-02 08:34N 47°40' W 003°24'0 0.0
2016-Dec-02 07:34N 47°40' W 003°24'2 1.7
2016-Dec-02 06:34N 47°39' W 003°22'9 9.2
2016-Dec-02 05:34N 47°31' W 003°14'9 9.2
2016-Dec-02 04:33N 47°23' W 003°07'9 9.0
2016-Dec-02 03:34N 47°19' W 002°56'9 9.2
2016-Dec-02 02:33N 47°14' W 002°43'9 9.0
2016-Dec-02 01:33N 47°09' W 002°32'9 8.5
2016-Dec-02 00:33N 47°05' W 002°22'0 0.1
2016-Dec-01 23:33N 47°05' W 002°22'0 0.1
2016-Dec-01 22:33N 47°05' W 002°22'0 0.1
2016-Dec-01 21:34N 47°05' W 002°22'9 9.1
2016-Dec-01 20:34N 47°13' W 002°16'1010.5
2016-Dec-01 19:33N 47°18' W 002°02'1111.1
2016-Dec-01 18:33N 47°13' W 001°48'7 7.0
2016-Dec-01 17:34N 47°12' W 001°38'0 0.0
2016-Dec-01 16:33N 47°12' W 001°38'5 4.7
2016-Dec-01 15:33N 47°12' W 001°45'9 9.0
2016-Dec-01 14:33N 47°17' W 001°56'10 9.6
2016-Dec-01 13:34N 47°17' W 002°10'1111.0
2016-Dec-01 12:33N 47°08' W 002°20'2 2.0
2016-Dec-01 11:34N 47°06' W 002°21'0 0.0
2016-Dec-01 10:34N 47°06' W 002°21'1 0.6
2016-Dec-01 09:31N 47°06' W 002°22'1 0.7
2016-Dec-01 08:32N 47°05' W 002°23'6 5.8
2016-Dec-01 07:32N 47°10' W 002°18'9 9.0
2016-Dec-01 06:33N 47°17' W 002°10'2 2.3
2016-Dec-01 05:33N 47°18' W 002°07'0 0.0
2016-Dec-01 04:33N 47°18' W 002°07'0 0.0
2016-Dec-01 03:33N 47°18' W 002°07'4 4.2
2016-Dec-01 02:33N 47°16' W 002°12'1111.2
2016-Dec-01 01:33N 47°06' W 002°20'0 0.5
2016-Dec-01 00:33N 47°06' W 002°21'1 1.0
2016-Nov-30 23:34N 47°06' W 002°22'0 0.3
2016-Nov-30 22:33N 47°06' W 002°23'7 6.8
2016-Nov-30 21:33N 47°11' W 002°18'1212.4
2016-Nov-30 20:33N 47°18' W 002°02'1312.9
2016-Nov-30 19:34N 47°12' W 001°45'5 4.9
2016-Nov-30 18:33N 47°12' W 001°38'0 0.0
2016-Nov-30 17:33N 47°12' W 001°38'0 0.0
2016-Nov-30 16:33N 47°12' W 001°38'5 5.3
2016-Nov-30 15:32N 47°12' W 001°46'1110.9
2016-Nov-30 14:32N 47°17' W 001°60'1110.8
2016-Nov-30 13:30N 47°14' W 002°16'1010.4
2016-Nov-30 12:33N 47°05' W 002°21'0 0.1
2016-Nov-30 11:33N 47°05' W 002°21'0 0.3
2016-Nov-30 10:33N 47°05' W 002°22'0 0.4
2016-Nov-30 09:33N 47°05' W 002°21'1 0.9
2016-Nov-30 08:33N 47°06' W 002°22'1211.7
2016-Nov-30 07:32N 47°16' W 002°12'1211.8
2016-Nov-30 06:33N 47°17' W 001°55'1211.9
2016-Nov-30 05:33N 47°12' W 001°39'2 1.6
2016-Nov-30 04:29N 47°12' W 001°37'0 0.0
2016-Nov-30 03:34N 47°12' W 001°37'0 0.0
2016-Nov-30 02:33N 47°12' W 001°37'0 0.0
2016-Nov-30 01:33N 47°12' W 001°37'0 0.0
2016-Nov-30 00:33N 47°12' W 001°37'0 0.0
2016-Nov-29 23:33N 47°12' W 001°37'0 0.0
2016-Nov-29 22:34N 47°12' W 001°37'0 0.0
2016-Nov-29 21:33N 47°12' W 001°37'0 0.0
2016-Nov-29 20:33N 47°12' W 001°37'0 0.0
2016-Nov-29 19:33N 47°12' W 001°37'0 0.0
2016-Nov-29 18:34N 47°12' W 001°37'0 0.0
2016-Nov-29 17:33N 47°12' W 001°37'0 0.0
2016-Nov-29 16:33N 47°12' W 001°37'0 0.0
2016-Nov-29 15:33N 47°12' W 001°37'0 0.0
2016-Nov-29 14:34N 47°12' W 001°37'  
Track history (hours):
 
Tides and Currents Weather Stations Pressure Air Temp Water Temp Dewpoint Dewpoint Depression Visibility Wind Speed Wind Dir Waves Ship Positions

St Pierre

Last reported at 2016-Dec-09 14:33 UTC. Time now 2016-Dec-09 19:48 UTC.
Position N 47°05' W 002°22'.

Length 84 m; draft 4.5 m.

Type: Cargo ship. MMSI: 228024800.

Date/timePositionNaut miles runAvg speedWind from/ knotsBaromVisibWave heightAir tempDewpointWater temp
2016-Dec-09 14:33N 47°05' W 002°22'1010.5
2016-Dec-09 13:33N 47°14' W 002°15'1111.2
2016-Dec-09 12:33N 47°17' W 001°59'1110.6
2016-Dec-09 11:33N 47°12' W 001°45'5 4.9
2016-Dec-09 10:33N 47°12' W 001°38'0 0.0
2016-Dec-09 09:33N 47°12' W 001°38'0 0.0
2016-Dec-09 08:33N 47°12' W 001°38'0 0.0
2016-Dec-09 07:33N 47°12' W 001°38'0 0.0
2016-Dec-09 06:33N 47°12' W 001°38'0 0.0
2016-Dec-09 05:33N 47°12' W 001°38'0 0.0
2016-Dec-09 04:33N 47°12' W 001°38'0 0.0
2016-Dec-09 03:33N 47°12' W 001°38'0 0.0
2016-Dec-09 02:33N 47°12' W 001°38'0 0.0
2016-Dec-09 01:33N 47°12' W 001°38'0 0.0
2016-Dec-09 00:33N 47°12' W 001°38'0 0.0
2016-Dec-08 23:33N 47°12' W 001°38'0 0.0
2016-Dec-08 22:33N 47°12' W 001°38'6 5.7
2016-Dec-08 21:33N 47°12' W 001°46'1110.9
2016-Dec-08 20:33N 47°17' W 002°00'1211.6
2016-Dec-08 19:33N 47°13' W 002°16'9 8.7
2016-Dec-08 18:33N 47°06' W 002°22'0 0.3
2016-Dec-08 17:33N 47°06' W 002°22'1 0.6
2016-Dec-08 16:33N 47°05' W 002°23'2 2.0
2016-Dec-08 15:34N 47°07' W 002°21'1111.3
2016-Dec-08 14:34N 47°16' W 002°11'1212.4
2016-Dec-08 13:33N 47°16' W 001°53'1111.3
2016-Dec-08 12:34N 47°12' W 001°38'0 0.0
2016-Dec-08 11:34N 47°12' W 001°38'3 3.4
2016-Dec-08 10:34N 47°12' W 001°43'1010.1
2016-Dec-08 09:33N 47°17' W 001°56'1010.0
2016-Dec-08 08:33N 47°17' W 002°11'1212.1
2016-Dec-08 07:34N 47°06' W 002°21'0 0.1
2016-Dec-08 06:33N 47°06' W 002°21'0 0.0
2016-Dec-08 05:34N 47°06' W 002°21'0 0.0
2016-Dec-08 04:33N 47°06' W 002°21'0 0.1
2016-Dec-08 03:33N 47°06' W 002°21'0 0.0
2016-Dec-08 02:34N 47°06' W 002°21'0 0.0
2016-Dec-08 01:33N 47°06' W 002°21'0 0.0
2016-Dec-08 00:33N 47°06' W 002°21'0 0.0
2016-Dec-07 23:34N 47°06' W 002°21'0 0.0
2016-Dec-07 22:33N 47°06' W 002°21'0 0.0
2016-Dec-07 21:34N 47°06' W 002°21'0 0.0
2016-Dec-07 20:34N 47°06' W 002°21'0 0.1
2016-Dec-07 19:33N 47°06' W 002°21'2 1.6
2016-Dec-07 18:33N 47°06' W 002°22'0 0.5
2016-Dec-07 17:34N 47°06' W 002°22'0 0.3
2016-Dec-07 16:33N 47°06' W 002°22'0 0.5
2016-Dec-07 15:34N 47°06' W 002°22'0 0.5
2016-Dec-07 14:33N 47°06' W 002°22'0 0.2
2016-Dec-07 13:34N 47°06' W 002°22'10 9.9
2016-Dec-07 12:34N 47°14' W 002°15'7 6.6
2016-Dec-07 11:34N 47°18' W 002°07'0 0.0
2016-Dec-07 10:33N 47°18' W 002°07'2 2.1
2016-Dec-07 09:34N 47°17' W 002°10'1110.8
2016-Dec-07 08:33N 47°09' W 002°20'4 3.9
2016-Dec-07 07:33N 47°05' W 002°22'0 0.3
2016-Dec-07 06:34N 47°05' W 002°21'0 0.0
2016-Dec-07 05:34N 47°05' W 002°21'0 0.0
2016-Dec-07 04:33N 47°05' W 002°21'0 0.0
2016-Dec-07 03:34N 47°05' W 002°21'6 6.4
2016-Dec-07 02:34N 47°11' W 002°18'1211.8
2016-Dec-07 01:33N 47°18' W 002°04'1312.7
2016-Dec-07 00:33N 47°13' W 001°47'6 6.5
2016-Dec-06 23:33N 47°12' W 001°38'0 0.0
2016-Dec-06 22:33N 47°12' W 001°38'0 0.3
2016-Dec-06 21:33N 47°12' W 001°39'9 8.6
2016-Dec-06 20:33N 47°14' W 001°50'18 9.1
2016-Dec-06 18:33N 47°12' W 002°17'8 7.7
2016-Dec-06 17:33N 47°05' W 002°21'0 0.0
2016-Dec-06 16:33N 47°05' W 002°21'0 0.2
2016-Dec-06 15:33N 47°05' W 002°22'0 0.1
2016-Dec-06 14:33N 47°05' W 002°22'0 0.2
2016-Dec-06 13:33N 47°05' W 002°21'7 6.9
2016-Dec-06 12:33N 47°11' W 002°18'1211.6
2016-Dec-06 11:33N 47°18' W 002°04'1212.1
2016-Dec-06 10:33N 47°13' W 001°48'8 7.7
2016-Dec-06 09:33N 47°12' W 001°37'0 0.0
2016-Dec-06 08:33N 47°12' W 001°37'0 0.0
2016-Dec-06 07:33N 47°12' W 001°37'0 0.0
2016-Dec-06 06:33N 47°12' W 001°37'0 0.0
2016-Dec-06 05:33N 47°12' W 001°37'0 0.0
2016-Dec-06 04:33N 47°12' W 001°37'0 0.0
2016-Dec-06 03:33N 47°12' W 001°37'0 0.0
2016-Dec-06 02:33N 47°12' W 001°37'0 0.0
2016-Dec-06 01:33N 47°12' W 001°37'0 0.0
2016-Dec-06 00:33N 47°12' W 001°37'0 0.0
2016-Dec-05 23:33N 47°12' W 001°37'0 0.0
2016-Dec-05 22:33N 47°12' W 001°37'0 0.0
2016-Dec-05 21:33N 47°12' W 001°37'0 0.0
2016-Dec-05 20:33N 47°12' W 001°37'0 0.0
2016-Dec-05 19:33N 47°12' W 001°37'0 0.0
2016-Dec-05 18:33N 47°12' W 001°37'0 0.0
2016-Dec-05 17:33N 47°12' W 001°37'0 0.0
2016-Dec-05 16:33N 47°12' W 001°37'0 0.0
2016-Dec-05 15:33N 47°12' W 001°37'0 0.0
2016-Dec-05 14:33N 47°12' W 001°37'0 0.0
2016-Dec-05 13:33N 47°12' W 001°37'0 0.0
2016-Dec-05 12:33N 47°12' W 001°37'0 0.0
2016-Dec-05 11:33N 47°12' W 001°37'0 0.0
2016-Dec-05 10:33N 47°12' W 001°37'0 0.0
2016-Dec-05 09:33N 47°12' W 001°37'0 0.0
2016-Dec-05 08:33N 47°12' W 001°37'0 0.0
2016-Dec-05 07:33N 47°12' W 001°37'0 0.0
2016-Dec-05 06:33N 47°12' W 001°37'0 0.0
2016-Dec-05 05:33N 47°12' W 001°37'0 0.0
2016-Dec-05 04:33N 47°12' W 001°37'0 0.0
2016-Dec-05 03:33N 47°12' W 001°37'0 0.0
2016-Dec-05 02:33N 47°12' W 001°37'0 0.0
2016-Dec-05 01:33N 47°12' W 001°37'0 0.0
2016-Dec-05 00:33N 47°12' W 001°37'0 0.0
2016-Dec-04 23:33N 47°12' W 001°37'0 0.0
2016-Dec-04 22:33N 47°12' W 001°37'0 0.0
2016-Dec-04 21:33N 47°12' W 001°37'0 0.0
2016-Dec-04 20:33N 47°12' W 001°37'0 0.0
2016-Dec-04 19:32N 47°12' W 001°37'0 0.0
2016-Dec-04 18:33N 47°12' W 001°37'0 0.0
2016-Dec-04 17:33N 47°12' W 001°37'0 0.0
2016-Dec-04 16:33N 47°12' W 001°37'0 0.0
2016-Dec-04 15:33N 47°12' W 001°37'0 0.0
2016-Dec-04 14:33N 47°12' W 001°37'0 0.0
2016-Dec-04 13:33N 47°12' W 001°37'0 0.0
2016-Dec-04 12:33N 47°12' W 001°37'0 0.0
2016-Dec-04 11:33N 47°12' W 001°37'0 0.0
2016-Dec-04 10:33N 47°12' W 001°37'0 0.0
2016-Dec-04 09:33N 47°12' W 001°37'0 0.0
2016-Dec-04 08:33N 47°12' W 001°37'0 0.0
2016-Dec-04 07:33N 47°12' W 001°37'0 0.0
2016-Dec-04 06:33N 47°12' W 001°37'0 0.0
2016-Dec-04 05:33N 47°12' W 001°37'0 0.0
2016-Dec-04 04:33N 47°12' W 001°37'0 0.0
2016-Dec-04 03:33N 47°12' W 001°37'0 0.0
2016-Dec-04 02:33N 47°12' W 001°37'0 0.0
2016-Dec-04 01:33N 47°12' W 001°37'0 0.0
2016-Dec-04 00:33N 47°12' W 001°37'0 0.0
2016-Dec-03 23:33N 47°12' W 001°37'0 0.0
2016-Dec-03 22:33N 47°12' W 001°37'0 0.0
2016-Dec-03 21:33N 47°12' W 001°37'0 0.0
2016-Dec-03 20:33N 47°12' W 001°37'0 0.0
2016-Dec-03 19:33N 47°12' W 001°37'1 0.8
2016-Dec-03 18:33N 47°12' W 001°38'0 0.0
2016-Dec-03 17:33N 47°12' W 001°38'7 7.4
2016-Dec-03 16:33N 47°13' W 001°49'1211.7
2016-Dec-03 15:33N 47°18' W 002°04'1211.5
2016-Dec-03 14:33N 47°11' W 002°18'7 6.9
2016-Dec-03 13:33N 47°05' W 002°21'0 0.2
2016-Dec-03 12:34N 47°05' W 002°21'0 0.1
2016-Dec-03 11:33N 47°05' W 002°21'0 0.3
2016-Dec-03 10:33N 47°05' W 002°21'1211.9
2016-Dec-03 09:34N 47°15' W 002°13'1211.7
2016-Dec-03 08:34N 47°17' W 001°56'1211.7
2016-Dec-03 07:34N 47°12' W 001°40'2 1.7
2016-Dec-03 06:34N 47°12' W 001°38'0 0.0
2016-Dec-03 05:33N 47°12' W 001°38'5 4.5
2016-Dec-03 04:33N 47°12' W 001°44'1010.0
2016-Dec-03 03:33N 47°17' W 001°57'1110.8
2016-Dec-03 02:30N 47°15' W 002°14'1011.1
2016-Dec-03 01:34N 47°06' W 002°22'0 0.2
2016-Dec-03 00:33N 47°06' W 002°22'6 5.5
2016-Dec-02 23:33N 47°08' W 002°30'1212.0
2016-Dec-02 22:33N 47°14' W 002°45'1212.3
2016-Dec-02 21:33N 47°20' W 003°00'1111.5
2016-Dec-02 20:34N 47°28' W 003°13'1312.8
2016-Dec-02 19:34N 47°40' W 003°21'6 5.5
2016-Dec-02 18:33N 47°45' W 003°19'0 0.0
2016-Dec-02 17:33N 47°45' W 003°19'0 0.0
2016-Dec-02 16:33N 47°45' W 003°19'1 0.8
2016-Dec-02 15:33N 47°44' W 003°20'5 5.4
2016-Dec-02 14:33N 47°40' W 003°24'0 0.1
2016-Dec-02 13:34N 47°40' W 003°24'0 0.0
2016-Dec-02 12:33N 47°40' W 003°24'0 0.0
2016-Dec-02 11:34N 47°40' W 003°24'0 0.0
2016-Dec-02 10:33N 47°40' W 003°24'0 0.0
2016-Dec-02 09:33N 47°40' W 003°24'0 0.0
2016-Dec-02 08:34N 47°40' W 003°24'0 0.0
2016-Dec-02 07:34N 47°40' W 003°24'2 1.7
2016-Dec-02 06:34N 47°39' W 003°22'9 9.2
2016-Dec-02 05:34N 47°31' W 003°14'9 9.2
2016-Dec-02 04:33N 47°23' W 003°07'9 9.0
2016-Dec-02 03:34N 47°19' W 002°56'9 9.2
2016-Dec-02 02:33N 47°14' W 002°43'9 9.0
2016-Dec-02 01:33N 47°09' W 002°32'9 8.5
2016-Dec-02 00:33N 47°05' W 002°22'0 0.1
2016-Dec-01 23:33N 47°05' W 002°22'0 0.1
2016-Dec-01 22:33N 47°05' W 002°22'0 0.1
2016-Dec-01 21:34N 47°05' W 002°22'9 9.1
2016-Dec-01 20:34N 47°13' W 002°16'1010.5
2016-Dec-01 19:33N 47°18' W 002°02'1111.1
2016-Dec-01 18:33N 47°13' W 001°48'7 7.0
2016-Dec-01 17:34N 47°12' W 001°38'0 0.0
2016-Dec-01 16:33N 47°12' W 001°38'5 4.7
2016-Dec-01 15:33N 47°12' W 001°45'9 9.0
2016-Dec-01 14:33N 47°17' W 001°56'10 9.6
2016-Dec-01 13:34N 47°17' W 002°10'1111.0
2016-Dec-01 12:33N 47°08' W 002°20'2 2.0
2016-Dec-01 11:34N 47°06' W 002°21'0 0.0
2016-Dec-01 10:34N 47°06' W 002°21'1 0.6
2016-Dec-01 09:31N 47°06' W 002°22'1 0.7
2016-Dec-01 08:32N 47°05' W 002°23'6 5.8
2016-Dec-01 07:32N 47°10' W 002°18'9 9.0
2016-Dec-01 06:33N 47°17' W 002°10'2 2.3
2016-Dec-01 05:33N 47°18' W 002°07'0 0.0
2016-Dec-01 04:33N 47°18' W 002°07'0 0.0
2016-Dec-01 03:33N 47°18' W 002°07'4 4.2
2016-Dec-01 02:33N 47°16' W 002°12'1111.2
2016-Dec-01 01:33N 47°06' W 002°20'0 0.5
2016-Dec-01 00:33N 47°06' W 002°21'1 1.0
2016-Nov-30 23:34N 47°06' W 002°22'0 0.3
2016-Nov-30 22:33N 47°06' W 002°23'7 6.8
2016-Nov-30 21:33N 47°11' W 002°18'1212.4
2016-Nov-30 20:33N 47°18' W 002°02'1312.9
2016-Nov-30 19:34N 47°12' W 001°45'5 4.9
2016-Nov-30 18:33N 47°12' W 001°38'0 0.0
2016-Nov-30 17:33N 47°12' W 001°38'0 0.0
2016-Nov-30 16:33N 47°12' W 001°38'5 5.3
2016-Nov-30 15:32N 47°12' W 001°46'1110.9
2016-Nov-30 14:32N 47°17' W 001°60'1110.8
2016-Nov-30 13:30N 47°14' W 002°16'1010.4
2016-Nov-30 12:33N 47°05' W 002°21'0 0.1
2016-Nov-30 11:33N 47°05' W 002°21'0 0.3
2016-Nov-30 10:33N 47°05' W 002°22'0 0.4
2016-Nov-30 09:33N 47°05' W 002°21'1 0.9
2016-Nov-30 08:33N 47°06' W 002°22'1211.7
2016-Nov-30 07:32N 47°16' W 002°12'1211.8
2016-Nov-30 06:33N 47°17' W 001°55'1211.9
2016-Nov-30 05:33N 47°12' W 001°39'2 1.6
2016-Nov-30 04:29N 47°12' W 001°37'0 0.0
2016-Nov-30 03:34N 47°12' W 001°37'0 0.0
2016-Nov-30 02:33N 47°12' W 001°37'0 0.0
2016-Nov-30 01:33N 47°12' W 001°37'0 0.0
2016-Nov-30 00:33N 47°12' W 001°37'0 0.0
2016-Nov-29 23:33N 47°12' W 001°37'0 0.0
2016-Nov-29 22:34N 47°12' W 001°37'0 0.0
2016-Nov-29 21:33N 47°12' W 001°37'0 0.0
2016-Nov-29 20:33N 47°12' W 001°37'0 0.0
2016-Nov-29 19:33N 47°12' W 001°37'0 0.0
2016-Nov-29 18:34N 47°12' W 001°37'0 0.0
2016-Nov-29 17:33N 47°12' W 001°37'0 0.0
2016-Nov-29 16:33N 47°12' W 001°37'0 0.0
2016-Nov-29 15:33N 47°12' W 001°37'0 0.0
2016-Nov-29 14:34N 47°12' W 001°37'  

Dump ship's entire track history